Time;durP1;ratioP1;P1;durP2;ratioP2;P2;SDS_P1;SDS_P2;PMS_P1;PMS_P2;Temp;Humidity;BMP_temperature;BMP_pressure;BME280_temperature;BME280_humidity;BME280_pressure;Samples;Min_cycle;Max_cycle;Signal;HPM_P1;HPM_P2
2023/09/28 00:04:34;;;;;;;12.90;11.60;;;;;;;13.74;82.66;100425.17;218587;1255;140173;-73
2023/09/28 00:09:40;;;;;;;22.10;14.10;;;;;;;13.78;82.62;100422.91;218677;1259;140139;-74
2023/09/28 00:14:45;;;;;;;17.20;14.00;;;;;;;13.83;82.94;100419.96;218426;1257;140041;-74
2023/09/28 00:19:49;;;;;;;15.30;12.80;;;;;;;13.89;83.05;100420.55;219174;1257;140201;-71
2023/09/28 00:24:53;;;;;;;14.30;12.00;;;;;;;13.94;83.26;100415.99;217913;1259;141102;-76
2023/09/28 00:29:57;;;;;;;16.70;14.20;;;;;;;13.99;83.19;100410.20;218975;1255;139956;-80
2023/09/28 00:35:06;;;;;;;17.40;13.30;;;;;;;14.03;83.18;100407.75;217962;1259;140789;-70
2023/09/28 00:40:31;;;;;;;19.50;11.80;;;;;;;14.04;83.02;100404.06;220810;1256;140736;-71
2023/09/28 00:45:38;;;;;;;16.40;11.60;;;;;;;14.05;82.89;100400.65;220308;1257;140754;-73
2023/09/28 00:50:43;;;;;;;15.20;12.90;;;;;;;14.06;82.88;100402.66;219151;1257;143028;-72
2023/09/28 00:55:48;;;;;;;18.10;12.60;;;;;;;14.06;82.78;100400.45;217848;1259;142378;-71
2023/09/28 01:00:52;;;;;;;15.40;13.60;;;;;;;14.04;82.58;100398.87;219265;1259;140631;-71
2023/09/28 01:05:58;;;;;;;13.50;12.10;;;;;;;13.97;82.24;100400.98;219149;1257;141073;-71
2023/09/28 01:11:09;;;;;;;14.20;11.30;;;;;;;13.88;82.13;100400.29;218127;1257;140575;-72
2023/09/28 01:16:15;;;;;;;18.50;12.50;;;;;;;13.81;82.16;100397.09;219302;1259;140381;-73
2023/09/28 01:21:20;;;;;;;19.80;12.10;;;;;;;13.76;82.39;100394.48;218380;1259;140478;-73
2023/09/28 01:26:30;;;;;;;16.80;13.30;;;;;;;13.72;82.19;100398.34;218509;1256;141184;-72
2023/09/28 01:31:36;;;;;;;13.60;12.20;;;;;;;13.69;82.35;100397.91;217897;1259;139720;-70
2023/09/28 01:36:42;;;;;;;16.00;13.30;;;;;;;13.64;82.28;100393.84;218130;1257;140827;-72
2023/09/28 01:41:48;;;;;;;17.70;12.40;;;;;;;13.62;82.67;100395.29;218313;1259;141770;-69
2023/09/28 01:46:53;;;;;;;13.90;11.40;;;;;;;13.62;82.74;100395.61;218750;1254;141361;-72
2023/09/28 01:51:59;;;;;;;15.50;11.50;;;;;;;13.64;83.12;100394.75;218225;1259;141508;-78
2023/09/28 01:57:05;;;;;;;18.20;12.30;;;;;;;13.67;83.14;100391.52;218128;1257;142360;-78
2023/09/28 02:02:10;;;;;;;15.20;11.90;;;;;;;13.66;83.28;100389.92;218409;1259;139932;-78
2023/09/28 02:07:15;;;;;;;17.90;11.90;;;;;;;13.69;83.61;100393.08;218789;1257;141971;-74
2023/09/28 02:12:19;;;;;;;13.80;11.20;;;;;;;13.73;83.56;100389.73;218168;1257;140270;-76
2023/09/28 02:17:24;;;;;;;16.30;11.20;;;;;;;13.76;83.63;100386.60;218650;1257;140304;-77
2023/09/28 02:22:28;;;;;;;17.50;11.50;;;;;;;13.77;83.37;100385.38;218868;1255;140291;-79
2023/09/28 02:27:32;;;;;;;13.90;10.80;;;;;;;13.76;83.42;100383.13;218910;1258;140244;-77
2023/09/28 02:32:42;;;;;;;12.50;9.40;;;;;;;13.78;83.41;100380.46;220590;1257;139984;-71
2023/09/28 02:37:50;;;;;;;13.50;11.00;;;;;;;13.80;83.60;100379.98;220211;1257;139504;-72
2023/09/28 02:42:57;;;;;;;13.60;11.70;;;;;;;13.86;83.34;100383.46;218558;1257;141445;-70
2023/09/28 02:48:04;;;;;;;15.40;12.20;;;;;;;13.88;83.20;100381.25;219554;1257;140513;-74
2023/09/28 02:53:09;;;;;;;14.80;11.30;;;;;;;13.88;83.00;100384.50;219845;1257;142255;-72
2023/09/28 02:58:14;;;;;;;19.40;11.00;;;;;;;13.85;82.94;100379.85;219554;1257;140847;-73
2023/09/28 03:03:21;;;;;;;16.70;11.70;;;;;;;13.84;82.78;100380.09;219236;1257;141709;-73
2023/09/28 03:08:27;;;;;;;13.00;10.50;;;;;;;13.82;82.78;100375.30;218520;1259;142287;-72
2023/09/28 03:13:32;;;;;;;14.30;11.00;;;;;;;13.80;82.73;100377.13;218201;1259;140596;-69
2023/09/28 03:18:35;;;;;;;13.00;10.40;;;;;;;13.76;82.61;100372.79;218725;1256;142287;-73
2023/09/28 03:23:40;;;;;;;14.40;9.90;;;;;;;13.75;82.69;100374.32;218213;1259;141952;-77
2023/09/28 03:28:44;;;;;;;16.90;11.20;;;;;;;13.71;82.64;100371.64;217871;1256;140446;-75
2023/09/28 03:33:49;;;;;;;16.80;12.10;;;;;;;13.67;82.61;100370.70;218312;1257;140796;-73
2023/09/28 03:38:55;;;;;;;14.60;11.50;;;;;;;13.63;82.66;100371.52;219205;1259;140213;-73
2023/09/28 03:44:00;;;;;;;14.50;10.50;;;;;;;13.61;82.57;100363.01;218424;1259;140389;-79
2023/09/28 03:49:06;;;;;;;16.00;10.80;;;;;;;13.55;82.57;100368.64;218395;1257;142008;-77
2023/09/28 03:54:11;;;;;;;14.50;11.90;;;;;;;13.49;82.53;100367.60;218427;1259;140130;-77
2023/09/28 03:59:18;;;;;;;16.70;10.50;;;;;;;13.44;82.66;100371.10;218152;1257;141135;-75
2023/09/28 04:04:23;;;;;;;17.90;11.20;;;;;;;13.40;82.43;100365.46;218368;1260;139920;-75
2023/09/28 04:09:27;;;;;;;14.00;10.20;;;;;;;13.37;82.39;100362.08;218293;1258;141417;-79
2023/09/28 04:14:32;;;;;;;15.80;10.50;;;;;;;13.32;82.57;100356.45;218101;1260;140117;-81
2023/09/28 04:19:37;;;;;;;14.50;9.90;;;;;;;13.28;82.78;100357.77;218503;1259;140519;-79
2023/09/28 04:24:42;;;;;;;25.90;11.70;;;;;;;13.23;82.58;100358.56;219928;1256;141737;-74
2023/09/28 04:29:46;;;;;;;13.60;10.50;;;;;;;13.17;82.62;100360.15;219681;1256;140703;-79
2023/09/28 04:34:51;;;;;;;14.50;10.90;;;;;;;13.12;83.01;100368.63;218825;1260;141035;-78
2023/09/28 04:39:57;;;;;;;14.10;11.10;;;;;;;13.12;83.13;100361.23;218654;1259;142197;-75
2023/09/28 04:45:02;;;;;;;16.30;10.60;;;;;;;13.11;83.17;100356.35;218232;1262;141778;-77
2023/09/28 04:50:08;;;;;;;12.20;10.40;;;;;;;13.12;82.93;100351.92;219055;1257;141722;-71
2023/09/28 04:55:14;;;;;;;21.00;10.40;;;;;;;13.14;83.28;100358.23;218749;1258;140355;-73
2023/09/28 05:00:20;;;;;;;14.70;11.20;;;;;;;13.15;82.99;100355.23;218949;1257;140501;-79
2023/09/28 05:05:25;;;;;;;17.20;10.80;;;;;;;13.14;82.94;100351.89;218613;1257;140904;-75
2023/09/28 05:10:30;;;;;;;13.10;11.30;;;;;;;13.10;83.24;100350.80;217930;1257;140709;-76
2023/09/28 05:15:35;;;;;;;16.30;11.10;;;;;;;13.09;83.24;100349.96;218488;1260;140340;-78
2023/09/28 05:20:42;;;;;;;14.30;11.40;;;;;;;13.15;83.38;100358.66;217916;1260;140929;-72
2023/09/28 05:25:47;;;;;;;20.80;11.40;;;;;;;13.23;83.68;100358.40;218133;1255;140336;-72
2023/09/28 05:30:51;;;;;;;11.20;9.80;;;;;;;13.28;83.78;100357.51;218027;1260;140232;-73
2023/09/28 05:35:56;;;;;;;13.40;10.60;;;;;;;13.36;83.71;100355.30;218318;1257;139967;-80
2023/09/28 05:41:02;;;;;;;12.60;10.90;;;;;;;13.45;83.75;100353.33;217613;1257;140396;-75
2023/09/28 05:46:06;;;;;;;12.60;10.50;;;;;;;13.55;83.76;100356.90;218594;1260;153071;-73
2023/09/28 05:51:10;;;;;;;21.60;11.30;;;;;;;13.64;84.12;100358.90;218547;1257;140469;-79
2023/09/28 05:56:14;;;;;;;14.60;11.10;;;;;;;13.75;83.78;100357.48;219331;1260;141004;-71
2023/09/28 06:01:21;;;;;;;14.80;11.30;;;;;;;13.88;84.08;100355.27;218757;1254;142622;-75
2023/09/28 06:06:27;;;;;;;13.30;10.80;;;;;;;14.01;84.22;100360.16;219182;1254;140972;-74
2023/09/28 06:11:31;;;;;;;14.00;10.40;;;;;;;14.13;84.17;100364.27;219284;1256;140341;-72
2023/09/28 06:16:36;;;;;;;12.90;10.60;;;;;;;14.30;84.18;100366.70;218986;1258;141067;-69
2023/09/28 06:21:42;;;;;;;16.50;10.80;;;;;;;14.46;84.28;100371.70;220492;1256;140989;-78
2023/09/28 06:26:46;;;;;;;14.00;12.30;;;;;;;14.65;84.55;100369.58;218810;1257;142825;-70
2023/09/28 06:31:50;;;;;;;12.40;10.40;;;;;;;14.84;84.59;100369.58;220100;1256;140967;-71
2023/09/28 06:36:55;;;;;;;14.30;11.00;;;;;;;15.04;84.58;100365.98;219070;1256;140503;-74
2023/09/28 06:42:02;;;;;;;15.90;12.20;;;;;;;15.37;84.66;100367.85;217855;1257;140767;-74
2023/09/28 06:47:27;;;;;;;17.70;11.80;;;;;;;15.98;84.40;100365.40;218177;1258;140303;-70
2023/09/28 06:52:52;;;;;;;13.90;11.50;;;;;;;16.46;83.74;100368.98;218725;1257;140994;-70
2023/09/28 06:57:56;;;;;;;15.90;13.10;;;;;;;16.76;83.37;100374.29;217955;1254;140841;-70
2023/09/28 07:03:00;;;;;;;18.20;11.20;;;;;;;17.30;83.11;100371.80;218409;1257;141390;-78
2023/09/28 07:08:09;;;;;;;15.70;11.70;;;;;;;18.60;82.95;100375.25;218577;1257;141621;-72
2023/09/28 07:13:13;;;;;;;17.80;11.00;;;;;;;20.13;81.29;100378.42;218609;1257;141030;-74
2023/09/28 07:18:18;;;;;;;13.50;12.00;;;;;;;21.49;78.63;100382.92;218005;1257;139392;-72
2023/09/28 07:23:23;;;;;;;15.50;12.40;;;;;;;22.68;76.26;100378.84;218346;1257;139630;-77
2023/09/28 07:28:30;;;;;;;;;;;;;;;23.50;74.33;100378.68;218177;1258;140157;-72
2023/09/28 07:33:36;;;;;;;30.00;12.90;;;;;;;24.03;72.51;100377.29;218285;1257;125834;-74
2023/09/28 07:38:43;;;;;;;21.00;11.20;;;;;;;24.31;71.43;100368.22;218684;1256;140595;-72
2023/09/28 07:43:51;;;;;;;13.90;11.20;;;;;;;24.53;70.09;100368.23;218587;1257;139683;-76
2023/09/28 07:48:56;;;;;;;14.20;10.30;;;;;;;24.62;69.02;100372.84;218504;1256;139762;-76
2023/09/28 07:54:02;;;;;;;14.60;11.40;;;;;;;24.57;67.93;100369.20;218489;1258;139994;-76
2023/09/28 07:59:09;;;;;;;14.10;10.50;;;;;;;24.52;67.45;100369.55;218698;1257;140355;-77
2023/09/28 08:04:16;;;;;;;15.80;11.40;;;;;;;24.46;66.93;100370.75;218199;1257;140242;-75
2023/09/28 08:09:23;;;;;;;16.30;10.70;;;;;;;24.46;67.41;100374.06;218577;1257;140002;-77
2023/09/28 08:14:29;;;;;;;17.30;11.10;;;;;;;24.62;66.54;100370.62;218114;1257;141366;-75
2023/09/28 08:19:33;;;;;;;12.30;11.20;;;;;;;24.40;65.36;100373.73;219088;1256;139618;-70
2023/09/28 08:24:39;;;;;;;12.20;9.50;;;;;;;24.49;66.07;100374.98;219421;1256;140592;-81
2023/09/28 08:29:46;;;;;;;14.00;11.60;;;;;;;24.78;66.14;100370.92;218497;1259;139246;-76
2023/09/28 08:34:51;;;;;;;12.30;10.10;;;;;;;25.00;65.10;100372.88;219192;1256;140233;-75
2023/09/28 08:39:58;;;;;;;20.90;9.80;;;;;;;24.94;63.92;100369.31;219640;1257;139578;-77
2023/09/28 08:45:03;;;;;;;12.30;8.80;;;;;;;24.97;64.06;100373.11;218866;1254;141453;-70
2023/09/28 08:50:12;;;;;;;11.60;9.00;;;;;;;25.13;63.70;100373.74;218348;1256;412818;-76
2023/09/28 08:55:18;;;;;;;13.20;10.10;;;;;;;25.26;63.33;100374.27;219038;1257;139707;-75
2023/09/28 09:06:29;;;;;;;11.20;9.90;;;;;;;25.53;61.67;100366.14;218701;1256;139959;-74
2023/09/28 09:11:37;;;;;;;8.90;8.00;;;;;;;25.47;60.76;100369.38;217655;1257;141302;-75
2023/09/28 09:16:42;;;;;;;12.40;8.70;;;;;;;25.60;60.79;100366.61;218878;1257;138878;-76
2023/09/28 09:21:47;;;;;;;10.10;9.00;;;;;;;25.81;59.93;100366.27;218152;1257;139979;-77
2023/09/28 09:26:53;;;;;;;;;;;;;;;26.10;59.97;100365.54;218419;1256;140285;-77
2023/09/28 09:32:02;;;;;;;9.80;8.10;;;;;;;26.33;59.40;100362.88;218423;1256;125816;-76
2023/09/28 09:37:12;;;;;;;16.30;9.00;;;;;;;26.41;58.22;100357.02;218322;1259;151511;-76
2023/09/28 09:42:28;;;;;;;9.40;8.50;;;;;;;26.57;58.22;100359.88;218348;1259;139479;-72
2023/09/28 09:47:34;;;;;;;7.70;7.00;;;;;;;26.84;57.44;100362.18;218842;1257;140564;-75
2023/09/28 09:52:40;;;;;;;7.70;6.20;;;;;;;26.94;56.32;100361.54;218146;1260;139578;-77
2023/09/28 09:57:47;;;;;;;10.50;7.50;;;;;;;27.00;55.43;100364.50;219269;1256;140281;-75
2023/09/28 10:02:54;;;;;;;;;;;;;;;26.99;54.79;100368.76;218379;1256;141138;-75
2023/09/28 10:08:03;;;;;;;10.80;6.80;;;;;;;27.08;54.12;100364.05;219849;1260;126779;-75
2023/09/28 10:13:09;;;;;;;10.90;6.90;;;;;;;27.15;53.28;100360.51;218562;1257;143163;-75
2023/09/28 10:18:29;;;;;;;14.60;7.40;;;;;;;27.14;52.03;100355.95;218600;1256;139484;-74
2023/09/28 10:23:35;;;;;;;8.50;7.00;;;;;;;27.29;52.00;100360.03;218491;1259;140868;-75
2023/09/28 10:29:09;;;;;;;9.80;7.10;;;;;;;27.45;51.64;100359.43;219298;1256;140639;-75
2023/09/28 10:34:21;;;;;;;12.20;7.10;;;;;;;27.57;51.79;100362.45;218799;1257;139507;-76
2023/09/28 10:39:26;;;;;;;9.00;6.20;;;;;;;27.74;51.15;100359.53;218573;1257;140278;-75
2023/09/28 10:44:32;;;;;;;9.90;5.80;;;;;;;27.80;50.45;100361.16;219017;1256;139290;-76
2023/09/28 10:49:36;;;;;;;5.90;5.30;;;;;;;27.85;49.49;100358.11;218281;1257;139892;-74
2023/09/28 10:54:46;;;;;;;6.80;6.20;;;;;;;27.95;49.35;100355.67;218796;1256;140095;-75
2023/09/28 10:59:58;;;;;;;12.10;6.10;;;;;;;28.04;49.10;100355.13;218596;1259;161009;-75
2023/09/28 11:05:02;;;;;;;9.10;6.30;;;;;;;28.15;48.38;100352.42;218590;1257;140186;-76
2023/09/28 11:10:08;;;;;;;21.60;7.10;;;;;;;28.22;47.80;100354.57;218491;1257;140440;-75
2023/09/28 11:15:14;;;;;;;7.70;6.50;;;;;;;28.30;47.57;100351.02;217994;1259;140224;-72
2023/09/28 11:20:19;;;;;;;14.20;5.90;;;;;;;28.35;47.09;100347.20;218329;1259;141656;-75
2023/09/28 11:25:42;;;;;;;7.90;5.40;;;;;;;28.54;46.47;100341.34;218385;1259;141365;-75
2023/09/28 11:31:12;;;;;;;5.70;5.10;;;;;;;28.72;46.03;100341.09;219017;1256;140110;-76
2023/09/28 11:36:22;;;;;;;9.50;6.10;;;;;;;28.55;44.45;100340.36;218325;1258;139717;-76
2023/09/28 11:41:31;;;;;;;5.20;4.60;;;;;;;28.31;44.45;100332.55;217902;1257;139260;-74
2023/09/28 11:46:36;;;;;;;6.80;5.60;;;;;;;28.33;44.33;100332.77;218292;1259;140048;-75
2023/09/28 11:51:41;;;;;;;11.40;6.40;;;;;;;28.37;44.09;100324.56;218310;1257;139495;-76
2023/09/28 11:56:46;;;;;;;11.70;6.10;;;;;;;28.42;43.77;100320.95;218327;1259;139512;-75
2023/09/28 12:01:53;;;;;;;7.80;6.20;;;;;;;28.38;44.09;100317.92;218152;1259;139369;-75
2023/09/28 12:07:01;;;;;;;5.40;4.60;;;;;;;28.37;43.91;100311.57;218047;1258;140843;-77
2023/09/28 12:12:09;;;;;;;6.50;5.80;;;;;;;28.34;43.29;100309.66;218147;1255;140462;-75
2023/09/28 12:17:15;;;;;;;6.70;6.00;;;;;;;28.40;43.37;100313.31;217858;1259;140624;-76
2023/09/28 12:22:21;;;;;;;13.00;5.70;;;;;;;28.43;43.76;100311.90;218493;1256;140227;-76
2023/09/28 12:27:30;;;;;;;7.90;5.50;;;;;;;28.56;43.35;100311.77;218929;1257;139716;-75
2023/09/28 12:32:39;;;;;;;8.80;5.70;;;;;;;28.45;43.13;100307.64;219080;1256;140745;-71
2023/09/28 12:38:41;;;;;;;12.00;5.90;;;;;;;28.34;42.87;100305.57;218541;1257;139757;-76
2023/09/28 12:43:46;;;;;;;9.90;6.10;;;;;;;28.23;43.06;100297.70;218299;1259;142441;-76
2023/09/28 12:48:55;;;;;;;11.30;5.90;;;;;;;28.21;43.19;100298.11;218161;1256;139322;-76
2023/09/28 12:54:02;;;;;;;9.20;5.70;;;;;;;28.27;42.57;100296.23;218142;1256;139817;-75
2023/09/28 12:59:07;;;;;;;6.60;5.00;;;;;;;28.27;42.71;100296.39;217956;1256;139643;-76
2023/09/28 13:04:12;;;;;;;7.60;6.00;;;;;;;28.32;42.21;100290.93;217854;1257;139408;-75
2023/09/28 13:09:20;;;;;;;7.80;5.10;;;;;;;28.35;42.00;100289.38;218117;1256;141115;-75
2023/09/28 13:14:26;;;;;;;5.20;4.80;;;;;;;28.32;41.66;100283.30;218112;1259;139146;-75
2023/09/28 13:19:31;;;;;;;8.90;5.50;;;;;;;28.26;41.56;100278.26;218365;1256;140597;-74
2023/09/28 13:24:37;;;;;;;8.70;5.30;;;;;;;28.10;41.10;100277.22;218387;1256;139763;-75
2023/09/28 13:29:42;;;;;;;5.80;4.50;;;;;;;28.02;41.14;100272.06;218240;1256;140062;-75
2023/09/28 13:42:09;;;;;;;10.40;5.20;;;;;;;28.05;41.34;100260.04;218546;1257;139349;-77
2023/09/28 13:47:16;;;;;;;5.30;4.80;;;;;;;28.04;41.12;100258.44;218038;1256;139357;-76
2023/09/28 13:52:23;;;;;;;9.40;5.80;;;;;;;27.98;40.69;100262.62;219365;1256;139899;-76
2023/09/28 13:57:28;;;;;;;11.60;5.30;;;;;;;27.90;40.67;100261.15;218997;1256;140038;-77
2023/09/28 14:02:32;;;;;;;12.30;4.80;;;;;;;27.86;40.55;100255.70;219464;1256;139376;-76
2023/09/28 14:07:36;;;;;;;5.60;5.10;;;;;;;27.74;40.41;100253.35;219213;1255;140979;-77
2023/09/28 14:12:41;;;;;;;11.50;5.30;;;;;;;27.59;40.41;100253.40;220480;1255;139859;-76
2023/09/28 14:17:49;;;;;;;10.80;4.80;;;;;;;27.48;40.62;100249.38;219048;1256;139983;-74
2023/09/28 14:22:55;;;;;;;13.80;5.90;;;;;;;27.39;40.59;100248.66;219960;1255;139844;-77
2023/09/28 14:28:00;;;;;;;7.60;5.90;;;;;;;27.35;40.76;100245.73;219422;1256;140972;-77
2023/09/28 14:33:06;;;;;;;6.10;5.50;;;;;;;27.20;40.31;100241.60;218133;1257;139870;-76
2023/09/28 14:38:13;;;;;;;9.30;5.40;;;;;;;27.06;40.30;100238.80;218410;1257;139359;-76
2023/09/28 14:43:18;;;;;;;4.50;4.10;;;;;;;26.89;40.33;100241.46;219964;1256;139990;-77
2023/09/28 14:48:22;;;;;;;9.30;5.80;;;;;;;26.81;40.43;100238.73;218409;1256;139552;-75
2023/09/28 14:53:27;;;;;;;8.50;4.80;;;;;;;26.73;40.82;100233.19;218416;1256;139888;-77
2023/09/28 14:58:32;;;;;;;7.60;5.90;;;;;;;26.61;40.93;100232.99;219392;1257;139727;-76
2023/09/28 15:03:38;;;;;;;7.40;5.40;;;;;;;26.47;41.22;100232.61;218509;1257;139355;-76
2023/09/28 15:08:43;;;;;;;7.80;5.00;;;;;;;26.29;41.12;100233.96;218753;1256;139246;-76
2023/09/28 15:13:49;;;;;;;8.80;5.40;;;;;;;26.16;41.92;100236.46;218292;1257;139858;-73
2023/09/28 15:18:54;;;;;;;42.20;7.90;;;;;;;25.99;43.27;100232.84;219602;1257;139654;-76
2023/09/28 15:24:01;;;;;;;13.00;5.60;;;;;;;25.72;44.33;100226.15;218675;1257;140756;-78
2023/09/28 15:29:07;;;;;;;5.40;5.00;;;;;;;25.39;45.30;100234.95;218732;1257;141443;-78
2023/09/28 15:41:34;;;;;;;6.80;5.20;;;;;;;24.67;47.21;100226.90;218070;1254;377363;-77
2023/09/28 15:46:39;;;;;;;7.10;5.60;;;;;;;24.29;48.53;100228.16;219393;1256;140405;-77
2023/09/28 15:58:26;;;;;;;10.10;5.90;;;;;;;23.58;50.81;100221.31;218313;1259;360875;-76
2023/09/28 16:03:33;;;;;;;6.20;5.70;;;;;;;23.27;51.11;100225.84;218957;1255;140160;-77
2023/09/28 16:08:41;;;;;;;7.60;6.40;;;;;;;22.85;51.60;100227.23;218878;1257;140128;-76
2023/09/28 16:13:46;;;;;;;9.40;5.60;;;;;;;22.40;52.44;100227.22;218520;1256;139687;-71
2023/09/28 16:18:52;;;;;;;6.50;5.40;;;;;;;22.05;52.93;100224.81;218563;1256;139000;-80
2023/09/28 16:23:56;;;;;;;7.50;5.90;;;;;;;21.55;53.78;100223.23;219409;1256;139706;-77
2023/09/28 16:29:00;;;;;;;6.60;6.00;;;;;;;21.11;54.57;100230.84;219908;1256;138748;-72
2023/09/28 16:34:04;;;;;;;7.70;7.00;;;;;;;20.77;55.47;100235.98;218186;1256;140572;-77
2023/09/28 16:39:08;;;;;;;10.30;6.20;;;;;;;20.48;56.09;100234.36;220215;1255;150332;-77
2023/09/28 16:44:12;;;;;;;19.60;8.20;;;;;;;20.19;56.72;100235.56;218889;1256;140102;-77
2023/09/28 16:49:16;;;;;;;10.50;6.90;;;;;;;19.94;57.28;100239.88;218650;1256;139386;-77
2023/09/28 16:54:21;;;;;;;7.60;6.10;;;;;;;19.61;57.56;100242.58;218015;1260;139875;-77
2023/09/28 16:59:25;;;;;;;10.40;6.20;;;;;;;19.24;58.10;100247.39;218309;1257;138956;-73
2023/09/28 17:04:29;;;;;;;14.30;7.10;;;;;;;18.87;58.84;100253.67;218782;1259;139645;-77
2023/09/28 17:09:34;;;;;;;12.50;6.80;;;;;;;18.50;59.48;100255.85;218034;1257;140713;-76
2023/09/28 17:14:39;;;;;;;16.80;10.20;;;;;;;18.14;60.44;100247.98;218236;1259;139668;-80
2023/09/28 17:19:45;;;;;;;12.60;10.50;;;;;;;17.85;61.38;100250.25;218201;1257;140119;-80
2023/09/28 17:24:49;;;;;;;14.30;9.60;;;;;;;17.66;61.92;100256.34;217708;1257;140800;-80
2023/09/28 17:29:56;;;;;;;10.00;7.90;;;;;;;17.47;62.42;100257.80;217935;1261;141201;-79
2023/09/28 17:35:02;;;;;;;12.20;9.20;;;;;;;17.39;63.12;100254.73;218154;1257;141053;-71
2023/09/28 17:40:09;;;;;;;13.20;8.10;;;;;;;17.31;63.26;100263.98;217917;1257;140968;-78
2023/09/28 17:45:15;;;;;;;11.50;7.70;;;;;;;16.99;63.52;100264.09;218449;1256;140272;-76
2023/09/28 17:50:21;;;;;;;10.60;7.80;;;;;;;16.70;64.27;100268.33;217880;1257;142913;-76
2023/09/28 17:55:26;;;;;;;16.70;9.70;;;;;;;16.44;65.12;100266.83;218634;1257;140217;-75
2023/09/28 18:00:31;;;;;;;13.40;9.00;;;;;;;16.30;65.72;100270.81;218296;1257;140333;-75
2023/09/28 18:05:39;;;;;;;16.70;10.00;;;;;;;16.30;66.10;100273.56;218096;1255;140142;-74
2023/09/28 18:10:45;;;;;;;27.70;9.80;;;;;;;16.25;66.27;100275.20;218482;1256;140926;-76
2023/09/28 18:15:49;;;;;;;11.20;8.40;;;;;;;16.20;66.59;100292.11;219305;1259;141132;-77
2023/09/28 18:20:54;;;;;;;27.80;8.90;;;;;;;16.09;66.54;100292.79;219726;1257;141240;-76
2023/09/28 18:25:59;;;;;;;18.50;8.10;;;;;;;15.97;66.73;100296.06;219899;1257;140281;-76
2023/09/28 18:31:04;;;;;;;16.10;8.10;;;;;;;15.84;67.06;100296.02;218247;1259;140667;-75
2023/09/28 18:36:08;;;;;;;10.30;7.90;;;;;;;15.73;67.30;100299.20;218982;1259;140237;-76
2023/09/28 18:41:17;;;;;;;9.20;7.20;;;;;;;15.63;67.69;100307.92;218833;1259;140466;-76
2023/09/28 18:46:22;;;;;;;13.10;9.30;;;;;;;15.53;68.03;100313.94;218662;1257;140052;-74
2023/09/28 18:51:30;;;;;;;9.40;7.60;;;;;;;15.40;68.29;100318.55;218280;1259;141122;-70
2023/09/28 18:56:35;;;;;;;25.40;8.20;;;;;;;15.25;68.68;100323.82;218818;1259;141481;-76
2023/09/28 19:01:41;;;;;;;12.90;8.60;;;;;;;15.10;69.14;100327.60;218083;1256;140517;-75
2023/09/28 19:06:48;;;;;;;12.80;8.70;;;;;;;15.03;69.45;100331.92;219151;1254;140047;-78
2023/09/28 19:11:56;;;;;;;10.40;9.40;;;;;;;15.02;69.82;100337.60;218142;1257;139649;-77
2023/09/28 19:17:05;;;;;;;11.30;8.20;;;;;;;15.03;69.84;100336.10;218317;1257;140722;-74
2023/09/28 19:22:09;;;;;;;15.00;10.10;;;;;;;15.04;70.15;100340.09;218991;1257;139927;-79
2023/09/28 19:27:17;;;;;;;9.70;7.80;;;;;;;15.06;70.32;100343.66;218177;1257;140252;-77
2023/09/28 19:32:42;;;;;;;20.80;10.30;;;;;;;15.05;70.53;100340.86;218244;1259;140144;-80
2023/09/28 19:37:48;;;;;;;10.00;9.10;;;;;;;15.09;70.63;100348.00;218261;1257;140636;-78
2023/09/28 19:42:54;;;;;;;13.60;9.60;;;;;;;15.06;70.57;100349.24;218269;1257;140058;-80
2023/09/28 19:48:02;;;;;;;15.40;7.80;;;;;;;14.96;70.65;100355.63;218367;1259;139997;-81
2023/09/28 19:53:12;;;;;;;13.60;8.20;;;;;;;14.88;70.81;100352.57;218463;1257;140750;-82
2023/09/28 19:58:22;;;;;;;11.30;9.00;;;;;;;14.81;70.89;100358.91;218523;1257;140061;-71
2023/09/28 20:03:31;;;;;;;14.80;9.60;;;;;;;14.72;71.12;100357.70;218309;1256;140879;-72
2023/09/28 20:08:37;;;;;;;14.40;8.50;;;;;;;14.59;71.34;100354.73;218521;1257;139782;-77
2023/09/28 20:13:42;;;;;;;15.80;9.20;;;;;;;14.49;71.79;100355.27;218367;1256;141128;-77
2023/09/28 20:18:51;;;;;;;13.30;8.70;;;;;;;14.44;72.25;100354.66;218273;1259;139946;-77
2023/09/28 20:23:56;;;;;;;10.60;9.50;;;;;;;14.46;72.59;100352.48;218470;1257;140586;-72
2023/09/28 20:29:01;;;;;;;11.30;9.30;;;;;;;14.49;72.43;100356.66;219091;1259;139959;-70
2023/09/28 20:34:07;;;;;;;12.00;8.00;;;;;;;14.49;72.69;100355.65;218463;1257;140809;-69
2023/09/28 20:39:14;;;;;;;14.30;10.10;;;;;;;14.42;72.59;100354.17;218724;1256;140351;-71
2023/09/28 20:44:19;;;;;;;14.40;9.30;;;;;;;14.37;72.93;100350.87;218710;1256;140242;-74
2023/09/28 20:49:26;;;;;;;16.80;11.20;;;;;;;14.34;73.05;100349.02;218634;1257;1044993;-83
2023/09/28 20:54:31;;;;;;;10.50;8.50;;;;;;;14.32;73.04;100345.93;218040;1257;140613;-73
2023/09/28 20:59:36;;;;;;;11.30;9.20;;;;;;;14.27;73.23;100344.29;218836;1259;141582;-71
2023/09/28 21:04:41;;;;;;;16.30;9.00;;;;;;;14.21;73.45;100344.17;218428;1259;140668;-72
2023/09/28 21:09:46;;;;;;;13.80;9.50;;;;;;;14.16;73.74;100344.73;217964;1257;140161;-72
2023/09/28 21:14:52;;;;;;;18.10;9.20;;;;;;;14.10;73.98;100338.85;217840;1257;139894;-73
2023/09/28 21:19:59;;;;;;;13.80;10.50;;;;;;;14.07;74.20;100334.73;218871;1257;140328;-72
2023/09/28 21:25:05;;;;;;;11.70;9.90;;;;;;;14.07;74.59;100333.81;218477;1258;140304;-74
2023/09/28 21:30:11;;;;;;;15.10;9.60;;;;;;;14.10;74.84;100328.59;218188;1257;139691;-75
2023/09/28 21:35:17;;;;;;;12.90;9.10;;;;;;;14.14;74.99;100326.96;218398;1257;140698;-77
2023/09/28 21:40:22;;;;;;;14.70;10.80;;;;;;;14.15;75.00;100327.94;218448;1257;139893;-76
2023/09/28 21:45:28;;;;;;;16.30;11.00;;;;;;;14.10;75.28;100326.57;218364;1259;140444;-75
2023/09/28 21:50:34;;;;;;;12.30;10.20;;;;;;;14.09;75.38;100322.85;218390;1259;140929;-75
2023/09/28 21:55:39;;;;;;;11.30;9.60;;;;;;;14.09;75.68;100322.91;218538;1259;140476;-75
2023/09/28 22:00:44;;;;;;;15.60;10.40;;;;;;;14.08;75.69;100323.10;218767;1259;139884;-77
2023/09/28 22:05:52;;;;;;;12.00;10.20;;;;;;;14.09;75.92;100324.29;218583;1259;143008;-76
2023/09/28 22:10:59;;;;;;;8.90;8.10;;;;;;;14.10;76.04;100326.45;219197;1259;141035;-76
2023/09/28 22:16:04;;;;;;;20.70;9.10;;;;;;;14.09;76.11;100325.27;218620;1257;141918;-76
2023/09/28 22:21:09;;;;;;;12.90;10.10;;;;;;;14.10;76.39;100327.05;218799;1259;140962;-73
2023/09/28 22:26:13;;;;;;;10.70;9.30;;;;;;;14.15;76.77;100328.80;218182;1257;140998;-77
2023/09/28 22:31:18;;;;;;;11.90;8.70;;;;;;;14.23;77.16;100326.42;220152;1257;140501;-76
2023/09/28 22:36:24;;;;;;;9.50;8.60;;;;;;;14.32;77.00;100327.20;218665;1255;140981;-77
2023/09/28 22:41:29;;;;;;;14.30;9.50;;;;;;;14.38;77.29;100329.70;218207;1259;141054;-72
2023/09/28 22:46:34;;;;;;;16.50;10.00;;;;;;;14.46;77.27;100335.27;217960;1260;141022;-72
2023/09/28 22:51:39;;;;;;;12.80;10.00;;;;;;;14.55;77.47;100335.46;217751;1260;140814;-71
2023/09/28 22:56:43;;;;;;;13.00;9.70;;;;;;;14.61;77.42;100341.89;218538;1255;141410;-72
2023/09/28 23:01:48;;;;;;;10.30;8.90;;;;;;;14.65;77.29;100347.11;217870;1260;140040;-75
2023/09/28 23:06:53;;;;;;;11.60;10.30;;;;;;;14.63;77.10;100353.52;218701;1258;139974;-75
2023/09/28 23:11:58;;;;;;;11.30;9.20;;;;;;;14.58;76.93;100355.95;218274;1257;140440;-78
2023/09/28 23:17:04;;;;;;;16.10;10.80;;;;;;;14.51;76.86;100362.98;219394;1256;141163;-79
2023/09/28 23:22:11;;;;;;;12.00;10.30;;;;;;;14.46;77.03;100366.17;218293;1258;141073;-70
2023/09/28 23:27:17;;;;;;;13.20;10.20;;;;;;;14.42;77.05;100358.75;218396;1259;141346;-71